Terminal Aerodrome Forecast
Issued by NWS

Home | Current Version | Previous Version | Text Only | Print | Product List | Glossary On
Versions: 1 2 3 4 5 6 7 8 9 10 11 12 13 14 15 16
000
FTUS42 KMLB 010520
TAFISM
TAF
KISM 010520Z 0106/0206 00000KT P6SM SCT250
     FM011400 15003KT P6SM FEW030
     FM012100 13007KT P6SM VCTS SCT040CB
     FM020200 14003KT P6SM SCT050 SCT100 BKN250
      AMD NOT SKED TIL 011100=

USA.gov is the U.S. government's official web portal to all federal, state and local government web resources and services.